Dewy Rose, Georgia
Current Conditions -  °F | °C
As of 10:51 AM on Sunday 25 Jan 2015 (Local Time) from KAHN Reporting Station
Clear Clear  
Wind Chill: 46°   Ceiling: Unl
Heat Index: 48°   Visibility: 10mi
Dew Point: 31°   Wind: 5mph
Humidity: 52%   Direction: 210°SSW
Pressure: 29.94"   Gusts: NA
Location:  34.17°N, 82.95°W
Report Text: KAHN 251551Z 21004KT 10SM CLR 09/M01 A2994 RMK AO2 SLP141 T00891006
Loading
Personal Weather Stations






























Interactive Weather Map New forecast layout! Learn more

10-Day Weather Forecast

Advertisements
Track Severe Weather on mobile